createdAt,value
2022-09-28T00:00:47.575Z,93163.69
2022-09-28T00:03:14.165Z,93163.50
2022-09-28T00:05:40.830Z,93165.63
2022-09-28T00:08:07.394Z,93163.06
2022-09-28T00:10:33.996Z,93156.94
2022-09-28T00:13:01.740Z,93160.56
2022-09-28T00:15:28.398Z,93156.94
2022-09-28T00:17:54.990Z,93160.44
2022-09-28T00:20:22.805Z,93150.31
2022-09-28T00:22:49.500Z,93151.97
2022-09-28T00:25:16.994Z,93146.34
2022-09-28T00:27:43.679Z,93149.25
2022-09-28T00:30:10.535Z,93138.56
2022-09-28T00:32:37.245Z,93151.19
2022-09-28T00:35:03.955Z,93146.88
2022-09-28T00:37:30.558Z,93138.63
2022-09-28T00:39:57.131Z,93133.78
2022-09-28T00:42:25.685Z,93146.97
2022-09-28T00:44:56.695Z,93142.47
2022-09-28T00:47:35.468Z,93146.91
2022-09-28T00:50:14.811Z,93141.72
2022-09-28T00:52:53.287Z,93155.19
2022-09-28T00:55:27.079Z,93149.88
2022-09-28T00:57:58.502Z,93150.75
2022-09-28T01:00:25.513Z,93144.41
2022-09-28T01:02:52.818Z,93153.19
2022-09-28T01:05:20.738Z,93150.34
2022-09-28T01:07:48.602Z,93144.00
2022-09-28T01:10:15.508Z,93147.72
2022-09-28T01:12:42.107Z,93145.09
2022-09-28T01:15:09.622Z,93150.97
2022-09-28T01:17:52.571Z,93154.28
2022-09-28T01:20:28.191Z,93142.72
2022-09-28T01:23:26.796Z,93145.13
2022-09-28T01:26:15.504Z,93156.59
2022-09-28T01:28:46.085Z,93150.78
2022-09-28T01:31:15.120Z,93153.91
2022-09-28T01:33:55.425Z,93158.47
2022-09-28T01:36:31.295Z,93159.41
2022-09-28T01:39:05.616Z,93163.88
2022-09-28T01:41:36.726Z,93159.59
2022-09-28T01:44:08.716Z,93161.75
2022-09-28T01:46:45.180Z,93153.81
2022-09-28T01:49:18.181Z,93151.81
2022-09-28T01:51:59.034Z,93158.78
2022-09-28T01:54:31.199Z,93160.53
2022-09-28T01:57:23.026Z,93163.69
2022-09-28T02:00:02.994Z,93169.22
2022-09-28T02:02:37.312Z,93171.34
2022-09-28T02:05:16.922Z,93169.03
2022-09-28T02:08:28.453Z,93159.59
2022-09-28T02:11:00.792Z,93166.88
2022-09-28T02:13:35.544Z,93172.31
2022-09-28T02:16:10.828Z,93168.09
2022-09-28T02:18:37.628Z,93165.53
2022-09-28T02:21:13.150Z,93165.00
2022-09-28T02:23:42.952Z,93160.69
2022-09-28T02:26:14.033Z,93165.56
2022-09-28T02:28:40.791Z,93159.47
2022-09-28T02:31:07.422Z,93166.16
2022-09-28T02:33:38.725Z,93164.88
2022-09-28T02:36:05.890Z,93159.41
2022-09-28T02:38:32.602Z,93159.13
2022-09-28T02:41:20.395Z,93154.06
2022-09-28T02:44:05.551Z,93158.09
2022-09-28T02:46:44.498Z,93162.53
2022-09-28T02:49:32.628Z,93168.28
2022-09-28T02:52:13.734Z,93173.81
2022-09-28T02:55:11.266Z,93171.25
2022-09-28T02:57:43.956Z,93177.59
2022-09-28T03:00:17.540Z,93176.00
2022-09-28T03:03:10.819Z,93179.78
2022-09-28T03:05:42.315Z,93182.28
2022-09-28T03:08:38.263Z,93188.69
2022-09-28T03:11:12.722Z,93195.13
2022-09-28T03:13:39.645Z,93195.00
2022-09-28T03:16:20.056Z,93194.91
2022-09-28T03:18:46.903Z,93201.25
2022-09-28T03:21:14.739Z,93203.47
2022-09-28T03:23:42.242Z,93216.22
2022-09-28T03:26:12.702Z,93210.97
2022-09-28T03:28:39.674Z,93206.16
2022-09-28T03:31:06.608Z,93213.47
2022-09-28T03:33:33.232Z,93216.00
2022-09-28T03:35:59.882Z,93207.97
2022-09-28T03:38:26.479Z,93206.91
2022-09-28T03:40:55.044Z,93210.22
2022-09-28T03:43:22.352Z,93206.25
2022-09-28T03:45:54.051Z,93206.31
2022-09-28T03:48:30.012Z,93199.53
2022-09-28T03:51:01.302Z,93195.75
2022-09-28T03:53:29.690Z,93208.66
2022-09-28T03:56:01.921Z,93205.53
2022-09-28T03:58:28.704Z,93205.88
2022-09-28T04:00:55.428Z,93209.50
2022-09-28T04:03:22.063Z,93203.56
2022-09-28T04:05:52.961Z,93206.34
2022-09-28T04:08:20.010Z,93203.38
2022-09-28T04:10:47.204Z,93204.66
2022-09-28T04:13:14.010Z,93201.63
2022-09-28T04:15:40.636Z,93219.72
2022-09-28T04:18:11.957Z,93210.44
2022-09-28T04:20:41.090Z,93207.78
2022-09-28T04:23:07.776Z,93213.31
2022-09-28T04:25:34.404Z,93213.50
2022-09-28T04:28:19.883Z,93214.91
2022-09-28T04:30:47.904Z,93222.06
2022-09-28T04:33:14.538Z,93213.16
2022-09-28T04:35:41.206Z,93210.38
2022-09-28T04:38:07.797Z,93202.31
2022-09-28T04:40:34.487Z,93194.00
2022-09-28T04:43:01.237Z,93208.53
2022-09-28T04:45:28.613Z,93211.38
2022-09-28T04:47:55.313Z,93201.69
2022-09-28T04:50:22.133Z,93200.47
2022-09-28T04:52:48.709Z,93206.34
2022-09-28T04:55:15.498Z,93205.25
2022-09-28T04:57:42.140Z,93204.63
2022-09-28T05:00:10.354Z,93210.63
2022-09-28T05:02:37.790Z,93211.84
2022-09-28T05:05:04.791Z,93209.38
2022-09-28T05:07:31.398Z,93206.84
2022-09-28T05:09:58.014Z,93217.34
2022-09-28T05:12:24.635Z,93212.38
2022-09-28T05:14:51.185Z,93208.81
2022-09-28T05:17:17.758Z,93212.03
2022-09-28T05:19:44.346Z,93208.72
2022-09-28T05:22:14.844Z,93216.88
2022-09-28T05:24:41.795Z,93213.53
2022-09-28T05:27:08.712Z,93207.00
2022-09-28T05:29:35.306Z,93207.84
2022-09-28T05:32:02.168Z,93204.81
2022-09-28T05:34:29.271Z,93210.94
2022-09-28T05:36:55.880Z,93215.41
2022-09-28T05:39:22.617Z,93219.09
2022-09-28T05:41:49.195Z,93219.63
2022-09-28T05:44:15.818Z,93219.03
2022-09-28T05:46:42.391Z,93221.44
2022-09-28T05:49:09.041Z,93225.91
2022-09-28T05:51:35.630Z,93217.88
2022-09-28T05:54:05.910Z,93222.69
2022-09-28T05:56:33.130Z,93209.44
2022-09-28T05:58:59.931Z,93215.66
2022-09-28T06:01:26.708Z,93212.75
2022-09-28T06:03:53.335Z,93211.34
2022-09-28T06:06:19.952Z,93210.78
2022-09-28T06:08:48.443Z,93214.94
2022-09-28T06:11:15.475Z,93222.59
2022-09-28T06:13:42.103Z,93211.31
2022-09-28T06:16:10.545Z,93220.03
2022-09-28T06:18:37.227Z,93226.69
2022-09-28T06:21:03.987Z,93226.19
2022-09-28T06:23:30.635Z,93237.81
2022-09-28T06:25:59.254Z,93236.13
2022-09-28T06:28:26.952Z,93236.38
2022-09-28T06:30:54.105Z,93248.16
2022-09-28T06:33:20.816Z,93226.19
2022-09-28T06:35:48.017Z,93235.31
2022-09-28T06:38:14.764Z,93238.72
2022-09-28T06:40:41.403Z,93240.25
2022-09-28T06:43:12.094Z,93244.25
2022-09-28T06:45:39.179Z,93255.06
2022-09-28T06:48:06.627Z,93249.91
2022-09-28T06:50:37.449Z,93256.22
2022-09-28T06:53:09.569Z,93246.38
2022-09-28T06:55:39.814Z,93240.78
2022-09-28T06:58:10.725Z,93242.72
2022-09-28T07:00:39.032Z,93240.72
2022-09-28T07:03:10.565Z,93244.16
2022-09-28T07:05:41.561Z,93248.47
2022-09-28T07:08:08.280Z,93256.34
2022-09-28T07:10:35.127Z,93248.66
2022-09-28T07:13:04.750Z,93257.78
2022-09-28T07:15:32.692Z,93255.06
2022-09-28T07:18:04.321Z,93254.88
2022-09-28T07:20:40.783Z,93272.38
2022-09-28T07:23:18.821Z,93270.38
2022-09-28T07:25:48.047Z,93263.59
2022-09-28T07:28:15.289Z,93273.47
2022-09-28T07:30:44.281Z,93267.72
2022-09-28T07:33:12.939Z,93263.34
2022-09-28T07:35:41.772Z,93271.84
2022-09-28T07:38:10.083Z,93267.84
2022-09-28T07:40:55.265Z,93278.56
2022-09-28T07:43:22.610Z,93271.25
2022-09-28T07:45:54.107Z,93269.00
2022-09-28T07:48:21.896Z,93278.28
2022-09-28T07:50:53.482Z,93274.16
2022-09-28T07:53:22.958Z,93262.41
2022-09-28T07:56:05.103Z,93265.56
2022-09-28T07:58:34.959Z,93278.47
2022-09-28T08:01:10.674Z,93276.22
2022-09-28T08:03:38.870Z,93272.25
2022-09-28T08:06:09.821Z,93279.81
2022-09-28T08:08:37.080Z,93272.53
2022-09-28T08:11:06.451Z,93275.16
2022-09-28T08:13:33.047Z,93270.91
2022-09-28T08:16:03.386Z,93275.56
2022-09-28T08:18:31.423Z,93283.03
2022-09-28T08:21:16.838Z,93285.97
2022-09-28T08:23:43.523Z,93282.25
2022-09-28T08:26:14.560Z,93285.44
2022-09-28T08:28:43.348Z,93282.91
2022-09-28T08:31:10.002Z,93279.66
2022-09-28T08:33:36.950Z,93280.25
2022-09-28T08:36:04.671Z,93272.34
2022-09-28T08:38:31.748Z,93280.44
2022-09-28T08:41:06.192Z,93277.50
2022-09-28T08:44:10.212Z,93276.88
2022-09-28T08:46:42.312Z,93278.97
2022-09-28T08:49:42.070Z,93283.81
2022-09-28T08:52:23.569Z,93267.38
2022-09-28T08:55:05.700Z,93275.06
2022-09-28T08:58:04.352Z,93255.81
2022-09-28T09:00:48.699Z,93258.50
2022-09-28T09:03:20.053Z,93266.38
2022-09-28T09:05:58.649Z,93270.88
2022-09-28T09:08:46.946Z,93266.38
2022-09-28T09:11:32.127Z,93267.25
2022-09-28T09:14:04.518Z,93268.34
2022-09-28T09:16:59.949Z,93260.50
2022-09-28T09:19:35.515Z,93250.47
2022-09-28T09:22:16.594Z,93255.44
2022-09-28T09:24:50.982Z,93250.34
2022-09-28T09:27:32.784Z,93247.34
2022-09-28T09:30:04.806Z,93253.78
2022-09-28T09:32:50.406Z,93245.56
2022-09-28T09:35:52.170Z,93249.94
2022-09-28T09:38:28.520Z,93246.19
2022-09-28T09:41:01.259Z,93246.50
2022-09-28T09:43:31.727Z,93238.78
2022-09-28T09:46:08.958Z,93241.06
2022-09-28T09:48:55.039Z,93241.66
2022-09-28T09:51:45.696Z,93240.19
2022-09-28T09:54:16.707Z,93233.25
2022-09-28T09:56:53.451Z,93238.44
2022-09-28T09:59:39.740Z,93228.75
2022-09-28T10:02:30.752Z,93242.63
2022-09-28T10:05:01.664Z,93238.75
2022-09-28T10:07:49.653Z,93228.81
2022-09-28T10:10:22.956Z,93222.16
2022-09-28T10:12:51.438Z,93220.16
2022-09-28T10:15:28.149Z,93218.75
2022-09-28T10:17:57.103Z,93217.91
2022-09-28T10:20:25.575Z,93205.44
2022-09-28T10:22:56.232Z,93207.22
2022-09-28T10:25:22.931Z,93202.56
2022-09-28T10:27:52.633Z,93200.38
2022-09-28T10:30:23.365Z,93191.22
2022-09-28T10:32:53.666Z,93192.34
2022-09-28T10:35:24.042Z,93185.25
2022-09-28T10:38:01.779Z,93196.03
2022-09-28T10:40:46.000Z,93192.81
2022-09-28T10:43:30.327Z,93190.78
2022-09-28T10:46:23.540Z,93190.47
2022-09-28T10:49:19.342Z,93192.97
2022-09-28T10:51:51.827Z,93191.94
2022-09-28T10:54:24.410Z,93178.91
2022-09-28T10:56:52.621Z,93175.34
2022-09-28T10:59:31.679Z,93176.19
2022-09-28T11:02:00.869Z,93174.31
2022-09-28T11:04:29.804Z,93169.03
2022-09-28T11:09:31.245Z,93170.31
2022-09-28T11:12:04.953Z,93178.03
2022-09-28T11:14:42.740Z,93169.59
2022-09-28T11:17:32.643Z,93147.84
2022-09-28T11:20:01.783Z,93142.66
2022-09-28T11:22:30.171Z,93150.91
2022-09-28T11:25:18.158Z,93150.63
2022-09-28T11:28:04.814Z,93146.94
2022-09-28T11:30:51.363Z,93132.00
2022-09-28T11:33:26.942Z,93127.47
2022-09-28T11:36:08.844Z,93141.22
2022-09-28T11:38:59.838Z,93131.94
2022-09-28T11:41:32.334Z,93145.44
2022-09-28T11:44:17.470Z,93150.22
2022-09-28T11:47:13.230Z,93149.19
2022-09-28T11:49:47.783Z,93137.63
2022-09-28T11:52:25.398Z,93130.59
2022-09-28T11:54:57.192Z,93131.38
2022-09-28T11:57:37.139Z,93116.34
2022-09-28T12:00:13.218Z,93127.91
2022-09-28T12:02:46.905Z,93116.38
2022-09-28T12:05:30.394Z,93130.28
2022-09-28T12:07:58.986Z,93144.06
2022-09-28T12:10:38.749Z,93141.50
2022-09-28T12:13:14.897Z,93145.25
2022-09-28T12:16:32.835Z,93139.78
2022-09-28T12:19:14.288Z,93130.75
2022-09-28T12:21:43.965Z,93138.25
2022-09-28T12:24:20.986Z,93128.34
2022-09-28T12:27:02.238Z,93127.31
2022-09-28T12:29:41.061Z,93138.78
2022-09-28T12:32:41.702Z,93131.09
2022-09-28T12:35:27.815Z,93130.78
2022-09-28T12:37:57.956Z,93121.22
2022-09-28T12:40:37.553Z,93124.25
2022-09-28T12:43:31.220Z,93131.22
2022-09-28T12:46:16.602Z,93131.44
2022-09-28T12:49:33.224Z,93128.97
2022-09-28T12:52:02.042Z,93125.75
2022-09-28T12:54:38.893Z,93128.34
2022-09-28T12:57:11.193Z,93136.69
2022-09-28T13:00:11.904Z,93139.44
2022-09-28T13:02:47.659Z,93136.34
2022-09-28T13:05:29.258Z,93136.81
2022-09-28T13:07:55.776Z,93137.84
2022-09-28T13:10:44.965Z,93143.59
2022-09-28T13:13:14.307Z,93133.94
2022-09-28T13:16:02.492Z,93130.38
2022-09-28T13:18:29.362Z,93126.22
2022-09-28T13:21:09.916Z,93118.69
2022-09-28T13:23:48.088Z,93131.31
2022-09-28T13:26:24.294Z,93128.19
2022-09-28T13:28:54.802Z,93126.91
2022-09-28T13:31:31.763Z,93130.81
2022-09-28T13:34:03.090Z,93132.22
2022-09-28T13:36:30.441Z,93134.13
2022-09-28T13:38:59.458Z,93132.75
2022-09-28T13:41:36.241Z,93134.97
2022-09-28T13:44:16.842Z,93136.88
2022-09-28T13:47:08.564Z,93146.59
2022-09-28T13:50:05.836Z,93122.66
2022-09-28T13:52:58.263Z,93134.84
2022-09-28T13:55:33.674Z,93120.84
2022-09-28T13:58:30.333Z,93129.97
2022-09-28T14:01:41.009Z,93136.81
2022-09-28T14:04:25.751Z,93139.63
2022-09-28T14:06:59.388Z,93140.41
2022-09-28T14:10:06.115Z,93144.28
2022-09-28T14:12:35.914Z,93147.03
2022-09-28T14:15:26.485Z,93139.81
2022-09-28T14:18:12.953Z,93136.50
2022-09-28T14:20:47.837Z,93133.81
2022-09-28T14:23:43.660Z,93130.16
2022-09-28T14:26:44.247Z,93131.75
2022-09-28T14:29:29.185Z,93129.06
2022-09-28T14:31:58.343Z,93119.94
2022-09-28T14:34:36.261Z,93126.16
2022-09-28T14:37:24.581Z,93123.44
2022-09-28T14:40:10.028Z,93126.31
2022-09-28T14:42:37.689Z,93131.34
2022-09-28T14:45:06.769Z,93126.97
2022-09-28T14:48:11.444Z,93124.69
2022-09-28T14:50:38.169Z,93125.59
2022-09-28T14:53:20.750Z,93128.16
2022-09-28T14:55:57.768Z,93124.22
2022-09-28T14:58:27.603Z,93128.31
2022-09-28T15:01:16.553Z,93126.16
2022-09-28T15:03:46.911Z,93129.50
2022-09-28T15:06:18.452Z,93124.47
2022-09-28T15:08:45.094Z,93123.56
2022-09-28T15:11:23.772Z,93122.63
2022-09-28T15:13:53.983Z,93133.22
2022-09-28T15:16:35.717Z,93124.72
2022-09-28T15:19:34.502Z,93129.59
2022-09-28T15:22:04.115Z,93134.56
2022-09-28T15:24:37.449Z,93132.47
2022-09-28T15:27:16.009Z,93138.09
2022-09-28T15:29:57.344Z,93138.25
2022-09-28T15:32:29.687Z,93132.13
2022-09-28T15:34:57.222Z,93145.59
2022-09-28T15:37:32.632Z,93136.16
2022-09-28T15:40:01.014Z,93130.38
2022-09-28T15:42:27.790Z,93132.34
2022-09-28T15:45:16.188Z,93132.94
2022-09-28T15:47:43.660Z,93127.66
2022-09-28T15:50:24.169Z,93139.84
2022-09-28T15:52:58.120Z,93145.03
2022-09-28T15:55:33.491Z,93139.28
2022-09-28T15:58:19.822Z,93140.63
2022-09-28T16:00:48.782Z,93139.03
2022-09-28T16:03:33.999Z,93140.25
2022-09-28T16:06:00.636Z,93138.16
2022-09-28T16:08:48.986Z,93134.34
2022-09-28T16:11:18.303Z,93136.94
2022-09-28T16:13:55.173Z,93145.91
2022-09-28T16:16:29.665Z,93145.28
2022-09-28T16:19:00.592Z,93153.91
2022-09-28T16:21:45.574Z,93158.28
2022-09-28T16:24:33.322Z,93157.19
2022-09-28T16:27:02.789Z,93156.50
2022-09-28T16:29:45.037Z,93153.44
2022-09-28T16:32:24.804Z,93155.28
2022-09-28T16:35:10.906Z,93161.75
2022-09-28T16:37:42.695Z,93160.53
2022-09-28T16:40:13.348Z,93152.03
2022-09-28T16:42:48.160Z,93156.78
2022-09-28T16:45:21.700Z,93156.56
2022-09-28T16:47:51.968Z,93168.16
2022-09-28T16:50:21.384Z,93171.09
2022-09-28T16:53:14.855Z,93161.94
2022-09-28T16:55:41.558Z,93170.84
2022-09-28T16:58:08.547Z,93156.91
2022-09-28T17:00:35.481Z,93165.63
2022-09-28T17:03:02.300Z,93170.53
2022-09-28T17:05:29.534Z,93155.53
2022-09-28T17:08:01.733Z,93166.28
2022-09-28T17:11:09.788Z,93164.81
2022-09-28T17:13:33.990Z,93159.91
2022-09-28T17:16:03.203Z,93156.75
2022-09-28T17:18:31.967Z,93146.06
2022-09-28T17:21:03.177Z,93156.31
2022-09-28T17:23:30.478Z,93159.00
2022-09-28T17:25:59.182Z,93156.66
2022-09-28T17:28:32.471Z,93168.56
2022-09-28T17:30:59.216Z,93159.69
2022-09-28T17:33:26.098Z,93166.03
2022-09-28T17:35:57.516Z,93149.22
2022-09-28T17:38:24.194Z,93170.91
2022-09-28T17:40:50.901Z,93156.41
2022-09-28T17:43:17.573Z,93178.25
2022-09-28T17:45:46.682Z,93171.16
2022-09-28T17:48:18.649Z,93171.78
2022-09-28T17:50:47.462Z,93175.69
2022-09-28T17:53:17.391Z,93177.25
2022-09-28T17:55:44.095Z,93182.84
2022-09-28T17:58:21.058Z,93194.91
2022-09-28T18:00:50.241Z,93184.34
2022-09-28T18:03:22.378Z,93190.25
2022-09-28T18:05:57.302Z,93192.16
2022-09-28T18:08:24.040Z,93184.22
2022-09-28T18:10:50.658Z,93183.84
2022-09-28T18:13:17.299Z,93189.81
2022-09-28T18:15:44.013Z,93187.81
2022-09-28T18:18:12.637Z,93186.09
2022-09-28T18:20:39.442Z,93180.28
2022-09-28T18:23:06.004Z,93202.22
2022-09-28T18:25:32.628Z,93192.31
2022-09-28T18:28:00.179Z,93196.34
2022-09-28T18:30:27.840Z,93194.19
2022-09-28T18:32:55.050Z,93194.75
2022-09-28T18:35:23.369Z,93200.69
2022-09-28T18:37:50.741Z,93203.84
2022-09-28T18:40:17.915Z,93193.06
2022-09-28T18:42:44.557Z,93219.50
2022-09-28T18:45:17.847Z,93212.34
2022-09-28T18:47:45.620Z,93220.81
2022-09-28T18:50:12.895Z,93219.94
2022-09-28T18:52:40.181Z,93218.41
2022-09-28T18:55:07.919Z,93202.75
2022-09-28T18:57:35.073Z,93217.38
2022-09-28T19:00:05.096Z,93228.44
2022-09-28T19:02:32.183Z,93220.38
2022-09-28T19:04:58.942Z,93226.13
2022-09-28T19:07:26.018Z,93229.72
2022-09-28T19:09:53.374Z,93219.47
2022-09-28T19:12:20.683Z,93228.41
2022-09-28T19:14:47.289Z,93240.81
2022-09-28T19:17:14.076Z,93238.31
2022-09-28T19:19:42.728Z,93253.66
2022-09-28T19:22:09.418Z,93246.25
2022-09-28T19:24:36.743Z,93231.00
2022-09-28T19:27:03.389Z,93230.94
2022-09-28T19:29:30.026Z,93230.59
2022-09-28T19:31:57.121Z,93235.50
2022-09-28T19:34:26.986Z,93240.28
2022-09-28T19:36:53.621Z,93252.03
2022-09-28T19:39:20.271Z,93249.97
2022-09-28T19:41:51.421Z,93252.00
2022-09-28T19:44:29.744Z,93249.72
2022-09-28T19:47:07.040Z,93259.50
2022-09-28T19:49:36.964Z,93259.38
2022-09-28T19:52:13.161Z,93255.59
2022-09-28T19:54:41.186Z,93247.25
2022-09-28T19:57:09.002Z,93253.97
2022-09-28T19:59:37.287Z,93248.66
2022-09-28T20:02:07.907Z,93234.31
2022-09-28T20:04:34.692Z,93250.56
2022-09-28T20:07:01.914Z,93246.84
2022-09-28T20:09:28.851Z,93245.78
2022-09-28T20:11:55.642Z,93251.09
2022-09-28T20:14:24.525Z,93257.31
2022-09-28T20:16:53.449Z,93249.19
2022-09-28T20:19:21.813Z,93251.44
2022-09-28T20:21:48.576Z,93253.81
2022-09-28T20:24:17.248Z,93262.00
2022-09-28T20:26:54.178Z,93257.53
2022-09-28T20:29:20.867Z,93256.00
2022-09-28T20:31:47.652Z,93260.50
2022-09-28T20:34:14.379Z,93262.06
2022-09-28T20:36:42.459Z,93255.94
2022-09-28T20:39:10.475Z,93266.34
2022-09-28T20:41:37.044Z,93266.34
2022-09-28T20:44:06.383Z,93267.56
2022-09-28T20:46:35.480Z,93270.09
2022-09-28T20:49:03.129Z,93274.66
2022-09-28T20:51:29.730Z,93270.00
2022-09-28T20:53:57.757Z,93279.91
2022-09-28T20:56:38.721Z,93278.25
2022-09-28T20:59:08.051Z,93286.47
2022-09-28T21:01:34.936Z,93284.16
2022-09-28T21:04:03.620Z,93284.69
2022-09-28T21:06:35.583Z,93294.84
2022-09-28T21:09:03.558Z,93285.97
2022-09-28T21:11:30.763Z,93283.75
2022-09-28T21:13:59.903Z,93286.88
2022-09-28T21:16:29.620Z,93288.19
2022-09-28T21:18:56.305Z,93293.78
2022-09-28T21:21:24.183Z,93294.59
2022-09-28T21:23:55.219Z,93291.81
2022-09-28T21:26:27.022Z,93293.31
2022-09-28T21:29:07.862Z,93293.22
2022-09-28T21:31:43.167Z,93297.13
2022-09-28T21:34:13.447Z,93287.97
2022-09-28T21:36:43.547Z,93304.53
2022-09-28T21:39:10.779Z,93313.50
2022-09-28T21:41:37.812Z,93307.75
2022-09-28T21:44:05.099Z,93299.34
2022-09-28T21:46:35.559Z,93309.91
2022-09-28T21:49:07.529Z,93297.56
2022-09-28T21:51:35.320Z,93291.06
2022-09-28T21:54:01.889Z,93300.13
2022-09-28T21:56:28.767Z,93297.34
2022-09-28T21:58:55.369Z,93289.72
2022-09-28T22:01:25.498Z,93290.75
2022-09-28T22:03:54.602Z,93291.94
2022-09-28T22:06:22.765Z,93302.78
2022-09-28T22:08:50.366Z,93300.09
2022-09-28T22:11:24.909Z,93304.91
2022-09-28T22:13:53.941Z,93307.78
2022-09-28T22:16:22.766Z,93295.88
2022-09-28T22:18:49.910Z,93293.81
2022-09-28T22:21:18.056Z,93290.66
2022-09-28T22:23:45.112Z,93298.13
2022-09-28T22:26:23.895Z,93293.06
2022-09-28T22:29:01.444Z,93298.19
2022-09-28T22:31:34.521Z,93293.53
2022-09-28T22:34:01.715Z,93296.16
2022-09-28T22:36:29.148Z,93303.88
2022-09-28T22:38:56.915Z,93300.69
2022-09-28T22:41:24.935Z,93302.19
2022-09-28T22:43:53.602Z,93291.53
2022-09-28T22:46:25.836Z,93287.47
2022-09-28T22:48:57.306Z,93294.66
2022-09-28T22:51:25.623Z,93295.34
2022-09-28T22:53:52.499Z,93307.09
2022-09-28T22:56:19.444Z,93294.13
2022-09-28T22:58:46.518Z,93290.81
2022-09-28T23:01:18.524Z,93294.38
2022-09-28T23:03:45.598Z,93292.25
2022-09-28T23:06:16.075Z,93303.72
2022-09-28T23:08:44.452Z,93284.13
2022-09-28T23:11:11.511Z,93290.41
2022-09-28T23:13:38.449Z,93302.19
2022-09-28T23:16:08.252Z,93300.97
2022-09-28T23:18:36.801Z,93292.00
2022-09-28T23:21:06.695Z,93292.84
2022-09-28T23:23:34.073Z,93288.34
2022-09-28T23:26:09.361Z,93292.63
2022-09-28T23:28:35.962Z,93280.34
2022-09-28T23:31:10.186Z,93280.16
2022-09-28T23:33:36.863Z,93285.25
2022-09-28T23:36:03.637Z,93283.94
2022-09-28T23:38:30.284Z,93283.13
2022-09-28T23:40:57.003Z,93273.34
2022-09-28T23:43:23.740Z,93290.13
2022-09-28T23:45:50.365Z,93293.16
2022-09-28T23:48:16.960Z,93294.28
2022-09-28T23:50:44.593Z,93281.53
2022-09-28T23:53:13.711Z,93280.63
2022-09-28T23:55:43.385Z,93272.69
2022-09-28T23:58:11.103Z,93286.91
